Iwojima, Japan

4:03 AM ChST on October 02, 2014 (GMT +1000)
Iwojima Aero | Change Station
CLOSE
Current Station
Airport
Location: Iwojima,
Elevation: 381 ft
Nearby Weather Stations

Elev 381 ft 24.78 °N, 141.32 °E | Updated 3 minutes ago

Mostly Cloudy
Mostly Cloudy
79 °F
Feels Like 79 °F
N
16
Wind Variable Wind from East

Today
High -- | Low -- °F
--% Chance of Precip.
Yesterday
High -- | Low -- °F
Precip. -- in
6:26 AM 6:21 PM
Waxing Crescent, 49% visible
Pressure 29.80 in
Visibility 6.2 miles
Clouds Few 800 ft
Mostly Cloudy 1200 ft
Dew Point 75 °F
Humidity 89%
Rainfall 0.00 in
Snow Depth Not available.
UV 0 out of 12
Pollen Not available.
Air Quality Not available.
Flu Activity Not available.
METAR RJAW 301800Z 10014KT 9999 FEW008 BKN012 26/24 Q1009 RMK 1ST008 5CU012 A2981

More Conditions Fewer Conditions

Pressure 29.80 in
Visibility 6.2 miles
Clouds Few 800 ft
Mostly Cloudy 1200 ft
Dew Point 75 °F
Humidity 89%
Rainfall 0.00 in
Snow Depth Not available.
UV 0 out of 12
Pollen Not available.
Air Quality Not available.
Flu Activity Not available.
METAR RJAW 301800Z 10014KT 9999 FEW008 BKN012 26/24 Q1009 RMK 1ST008 5CU012 A2981

More Conditions Fewer Conditions

10-Day Weather Forecast

Almanac

Astronomy

Oct. 02, 2014 Rise Set
Actual Time 6:26 AM ChST 6:21 PM ChST
Civil Twilight 6:04 AM ChST 6:43 PM ChST
Nautical Twilight 5:37 AM ChST 7:10 PM ChST
Astronomical Twilight 5:11 AM ChST 7:36 PM ChST
Moon 1:21 PM ChST (10/2) No Moon Set
Length of Visible Light 12h 39m
Length of Day
11h 54m
Tomorrow will be 1m 25s shorter.
Waxing Crescent, 49% of the Moon is Illuminated
Oct 1
Waxing Crescent
Oct 1
First Quarter
Oct 8
Full
Oct 15
Last Quarter
Oct 23
New

Yesterday's Extremes

Country Highs Country Lows

Community

WunderPhotos

Upload Photos

1,758,005 photos uploaded!

WunderBlogs® & News

By Dr. Jeff Masters
Director of Meteorology, Weather Underground
By Kari Strenfel
Meteorologist, Weather Underground
By Christopher C. Burt
Weather Historian, Weather Underground
October 1, 2014
October 1, 2014
October 1, 2014

Nearby

Snow Depth

Not available.

Earthquake Activity

City Distance Mag. Time & Date
No recent earthquake activity has been reported nearby.
Minimum magnitude displayed is 2.5.

Coastal Water Temperatures

Place Temperature
No Stations Reporting

Nearby Weather Stations